Time;durP1;ratioP1;P1;durP2;ratioP2;P2;SDS_P1;SDS_P2;PMS_P1;PMS_P2;Temp;Humidity;BMP_temperature;BMP_pressure;BME280_temperature;BME280_humidity;BME280_pressure;Samples;Min_cycle;Max_cycle;Signal;HPM_P1;HPM_P2
2022/04/08 00:00:06;;;;;;;0.40;0.40;;;3.90;99.90;;;;;;5009185;28;20560;-76
2022/04/08 00:02:32;;;;;;;0.40;0.40;;;3.90;99.90;;;;;;5016153;28;20245;-76
2022/04/08 00:04:57;;;;;;;0.40;0.40;;;3.90;99.90;;;;;;5010582;28;20447;-76
2022/04/08 00:07:23;;;;;;;0.40;0.40;;;3.90;99.90;;;;;;5010028;28;20198;-76
2022/04/08 00:09:48;;;;;;;0.40;0.40;;;3.90;99.90;;;;;;5010721;28;20204;-76
2022/04/08 00:12:14;;;;;;;0.40;0.40;;;3.90;99.90;;;;;;5011857;28;20195;-76
2022/04/08 00:14:39;;;;;;;0.40;0.40;;;4.00;99.90;;;;;;5008711;28;20584;-76
2022/04/08 00:17:05;;;;;;;0.50;0.50;;;4.00;99.90;;;;;;5013715;28;20195;-76
2022/04/08 00:19:31;;;;;;;0.40;0.40;;;4.00;99.90;;;;;;5007440;28;20217;-76
2022/04/08 00:21:57;;;;;;;0.40;0.40;;;4.00;99.90;;;;;;5003961;28;20193;-76
2022/04/08 00:24:23;;;;;;;0.40;0.40;;;4.00;99.90;;;;;;5006555;28;21021;-76
2022/04/08 00:26:48;;;;;;;0.30;0.30;;;4.10;99.90;;;;;;5019543;28;20222;-76
2022/04/08 00:29:14;;;;;;;0.50;0.50;;;4.00;99.90;;;;;;5009386;28;20188;-76
2022/04/08 00:31:40;;;;;;;0.30;0.30;;;4.00;99.90;;;;;;5019265;28;20234;-76
2022/04/08 00:34:05;;;;;;;0.40;0.40;;;4.00;99.90;;;;;;5013833;28;20454;-76
2022/04/08 00:36:31;;;;;;;0.40;0.40;;;4.00;99.90;;;;;;5008495;28;20188;-76
2022/04/08 00:38:57;;;;;;;0.50;0.50;;;4.00;99.90;;;;;;5008895;28;20286;-76
2022/04/08 00:41:23;;;;;;;0.30;0.30;;;4.10;99.90;;;;;;4995173;28;20649;-76
2022/04/08 00:43:48;;;;;;;0.50;0.50;;;4.00;99.90;;;;;;4995747;28;20275;-76
2022/04/08 00:46:14;;;;;;;0.40;0.40;;;4.10;99.90;;;;;;5006535;28;20809;-76
2022/04/08 00:48:40;;;;;;;0.40;0.40;;;4.10;99.90;;;;;;5015623;28;20193;-76
2022/04/08 00:51:06;;;;;;;0.50;0.50;;;4.10;99.90;;;;;;5004638;28;20589;-76
2022/04/08 00:53:34;;;;;;;0.30;0.30;;;4.20;99.90;;;;;;4991306;28;20192;-76
2022/04/08 00:56:02;;;;;;;0.40;0.40;;;4.20;99.90;;;;;;4997619;28;20526;-76
2022/04/08 00:58:28;;;;;;;0.40;0.40;;;4.10;99.90;;;;;;5012417;28;20498;-76
2022/04/08 01:00:54;;;;;;;0.40;0.40;;;4.20;99.90;;;;;;5011797;28;20447;-76
2022/04/08 01:03:20;;;;;;;0.50;0.50;;;4.20;99.90;;;;;;4997972;28;20473;-76
2022/04/08 01:05:47;;;;;;;0.50;0.50;;;4.20;99.90;;;;;;5000402;28;20683;-76
2022/04/08 01:08:14;;;;;;;0.40;0.40;;;4.30;99.90;;;;;;5000932;28;20191;-76
2022/04/08 01:10:40;;;;;;;0.40;0.40;;;4.20;99.90;;;;;;5006365;28;20451;-76
2022/04/08 01:13:06;;;;;;;0.40;0.40;;;4.30;99.90;;;;;;5022346;28;20838;-76
2022/04/08 01:15:31;;;;;;;0.30;0.30;;;4.30;99.90;;;;;;5013355;28;20442;-76
2022/04/08 01:17:57;;;;;;;0.40;0.40;;;4.30;99.90;;;;;;5010618;28;20466;-76
2022/04/08 01:20:23;;;;;;;0.40;0.40;;;4.30;99.90;;;;;;5016161;28;20242;-76
2022/04/08 01:22:48;;;;;;;0.33;0.33;;;4.30;99.90;;;;;;5014008;28;20249;-76
2022/04/08 01:25:14;;;;;;;0.40;0.40;;;4.30;99.90;;;;;;5013550;28;20200;-76
2022/04/08 01:27:40;;;;;;;0.40;0.40;;;4.40;99.90;;;;;;5015506;28;20196;-76
2022/04/08 01:30:08;;;;;;;0.40;0.40;;;4.40;99.90;;;;;;5010381;28;20208;-76
2022/04/08 01:32:34;;;;;;;0.40;0.40;;;4.40;99.90;;;;;;5015829;28;21250;-76
2022/04/08 01:34:59;;;;;;;0.40;0.40;;;4.40;99.90;;;;;;4993053;28;20489;-76
2022/04/08 01:37:25;;;;;;;0.40;0.40;;;4.30;99.90;;;;;;5016622;28;20938;-76
2022/04/08 01:39:51;;;;;;;0.30;0.30;;;4.40;99.90;;;;;;5012503;28;20227;-76
2022/04/08 01:42:22;;;;;;;0.40;0.40;;;4.40;99.90;;;;;;5015065;28;20192;-76
2022/04/08 01:44:48;;;;;;;0.40;0.40;;;4.40;99.90;;;;;;5021375;28;20189;-75
2022/04/08 01:47:13;;;;;;;0.40;0.40;;;4.40;99.90;;;;;;5011609;28;20458;-76
2022/04/08 01:49:39;;;;;;;0.40;0.40;;;4.40;99.90;;;;;;5009209;28;20446;-76
2022/04/08 01:52:05;;;;;;;0.33;0.33;;;4.40;99.90;;;;;;4994326;28;20572;-76
2022/04/08 01:54:31;;;;;;;0.50;0.50;;;4.40;99.90;;;;;;5017041;28;20197;-76
2022/04/08 01:56:56;;;;;;;0.33;0.33;;;4.50;99.90;;;;;;5014264;28;20525;-76
2022/04/08 01:59:22;;;;;;;0.40;0.40;;;4.40;99.90;;;;;;5010536;28;20219;-76
2022/04/08 02:01:48;;;;;;;0.40;0.40;;;4.40;99.90;;;;;;5013255;28;20218;-76
2022/04/08 02:04:14;;;;;;;0.30;0.30;;;4.50;99.90;;;;;;5014295;28;20455;-76
2022/04/08 02:06:41;;;;;;;0.40;0.40;;;4.40;99.90;;;;;;5006830;28;20195;-76
2022/04/08 02:09:07;;;;;;;0.40;0.40;;;4.40;99.90;;;;;;5011667;28;20250;-76
2022/04/08 02:11:33;;;;;;;0.40;0.40;;;4.50;99.90;;;;;;5011972;28;20451;-76
2022/04/08 02:13:59;;;;;;;0.33;0.33;;;4.40;99.90;;;;;;5013268;28;20451;-76
2022/04/08 02:16:24;;;;;;;0.40;0.40;;;4.40;99.90;;;;;;5005954;28;20465;-76
2022/04/08 02:18:50;;;;;;;0.47;0.47;;;4.40;99.90;;;;;;5017679;28;20228;-76
2022/04/08 02:21:19;;;;;;;0.50;0.50;;;4.40;99.90;;;;;;5009186;28;20242;-76
2022/04/08 02:23:46;;;;;;;0.40;0.40;;;4.40;99.90;;;;;;5018763;28;20193;-76
2022/04/08 02:26:13;;;;;;;0.40;0.40;;;4.40;99.90;;;;;;5016789;28;20442;-76
2022/04/08 02:28:39;;;;;;;0.37;0.37;;;4.40;99.90;;;;;;5018860;28;20451;-76
2022/04/08 02:31:05;;;;;;;0.43;0.43;;;4.40;99.90;;;;;;5009912;28;20442;-76
2022/04/08 02:33:31;;;;;;;0.40;0.40;;;4.40;99.90;;;;;;5008890;28;20254;-76
2022/04/08 02:35:57;;;;;;;0.40;0.40;;;4.40;99.90;;;;;;4995941;28;20931;-76
2022/04/08 02:38:22;;;;;;;0.40;0.40;;;4.30;99.90;;;;;;5013575;28;20466;-76
2022/04/08 02:40:48;;;;;;;0.40;0.40;;;4.30;99.90;;;;;;5011016;28;20588;-76
2022/04/08 02:43:13;;;;;;;0.40;0.40;;;4.30;99.90;;;;;;4998410;28;20618;-76
2022/04/08 02:45:39;;;;;;;0.33;0.33;;;4.30;99.90;;;;;;5004246;28;20252;-76
2022/04/08 02:48:05;;;;;;;0.40;0.40;;;4.30;99.90;;;;;;5019906;28;20191;-76
2022/04/08 02:50:30;;;;;;;0.50;0.50;;;4.30;99.90;;;;;;5011695;28;20211;-76
2022/04/08 02:52:56;;;;;;;0.40;0.40;;;4.20;99.90;;;;;;4991976;28;20184;-76
2022/04/08 02:55:22;;;;;;;0.40;0.40;;;4.20;99.90;;;;;;5007322;28;20220;-77
2022/04/08 02:57:48;;;;;;;0.40;0.40;;;4.30;99.90;;;;;;5008361;28;20657;-76
2022/04/08 03:00:18;;;;;;;0.40;0.40;;;4.30;99.90;;;;;;5006891;28;20180;-78
2022/04/08 03:02:45;;;;;;;0.40;0.40;;;4.20;99.90;;;;;;5014240;28;20989;-78
2022/04/08 03:05:11;;;;;;;0.30;0.30;;;4.20;99.90;;;;;;5007435;28;21078;-78
2022/04/08 03:07:36;;;;;;;0.40;0.40;;;4.10;99.90;;;;;;5011119;28;20495;-78
2022/04/08 03:10:07;;;;;;;0.40;0.40;;;4.10;99.90;;;;;;5012285;28;20196;-78
2022/04/08 03:12:32;;;;;;;0.33;0.33;;;4.10;99.90;;;;;;5010568;28;20192;-78
2022/04/08 03:14:59;;;;;;;0.50;0.50;;;4.10;99.90;;;;;;5008066;28;20449;-78
2022/04/08 03:17:24;;;;;;;0.40;0.40;;;4.10;99.90;;;;;;5009924;28;20263;-78
2022/04/08 03:19:50;;;;;;;0.43;0.43;;;4.10;99.90;;;;;;5008605;28;20593;-78
2022/04/08 03:22:19;;;;;;;0.40;0.40;;;4.00;99.90;;;;;;4999601;28;20716;-78
2022/04/08 03:24:45;;;;;;;0.40;0.40;;;3.90;99.90;;;;;;4996245;28;20184;-77
2022/04/08 03:27:11;;;;;;;0.40;0.40;;;3.90;99.90;;;;;;4993781;28;20431;-77
2022/04/08 03:29:37;;;;;;;0.40;0.40;;;4.00;99.90;;;;;;5012065;28;20451;-77
2022/04/08 03:32:02;;;;;;;0.40;0.40;;;4.00;99.90;;;;;;5006526;28;20840;-77
2022/04/08 03:34:28;;;;;;;0.50;0.50;;;3.90;99.90;;;;;;5010598;28;20204;-77
2022/04/08 03:36:53;;;;;;;0.47;0.47;;;3.80;99.90;;;;;;4990689;28;20319;-77
2022/04/08 03:39:20;;;;;;;0.43;0.43;;;3.90;99.90;;;;;;5008270;28;20286;-77
2022/04/08 03:41:45;;;;;;;0.40;0.40;;;3.90;99.90;;;;;;5003616;28;20180;-77
2022/04/08 03:44:11;;;;;;;0.30;0.30;;;3.80;99.90;;;;;;5009554;28;20443;-77
2022/04/08 03:46:37;;;;;;;0.40;0.40;;;3.90;99.90;;;;;;5023202;28;20196;-77
2022/04/08 03:49:04;;;;;;;0.30;0.30;;;3.80;99.90;;;;;;5007788;28;20672;-77
2022/04/08 03:51:30;;;;;;;0.50;0.50;;;3.80;99.90;;;;;;5005854;28;20292;-77
2022/04/08 03:53:55;;;;;;;0.40;0.40;;;3.70;99.90;;;;;;5006378;28;20570;-77
2022/04/08 03:56:21;;;;;;;0.40;0.40;;;3.80;99.90;;;;;;5008916;28;20302;-77
2022/04/08 03:58:46;;;;;;;0.50;0.50;;;3.70;99.90;;;;;;5010988;28;20327;-76
2022/04/08 04:01:12;;;;;;;0.40;0.40;;;3.70;99.90;;;;;;4982840;28;20184;-77
2022/04/08 04:03:38;;;;;;;0.40;0.40;;;3.70;99.90;;;;;;5015140;28;20195;-76
2022/04/08 04:06:03;;;;;;;0.50;0.50;;;3.80;99.90;;;;;;4990489;28;20557;-77
2022/04/08 04:08:29;;;;;;;0.40;0.40;;;3.70;99.90;;;;;;5025995;28;20594;-77
2022/04/08 04:10:54;;;;;;;0.50;0.50;;;3.70;99.90;;;;;;5009131;28;20238;-77
2022/04/08 04:13:20;;;;;;;0.40;0.40;;;3.70;99.90;;;;;;5013791;28;20521;-77
2022/04/08 04:15:45;;;;;;;0.43;0.43;;;3.70;99.90;;;;;;4987642;28;20594;-77
2022/04/08 04:18:11;;;;;;;0.50;0.50;;;3.70;99.90;;;;;;4998341;28;20208;-77
2022/04/08 04:20:36;;;;;;;0.43;0.43;;;3.70;99.90;;;;;;5010292;28;20196;-77
2022/04/08 04:23:02;;;;;;;0.50;0.50;;;3.80;99.90;;;;;;5011738;28;20181;-76
2022/04/08 04:25:28;;;;;;;0.30;0.30;;;3.80;99.90;;;;;;4989272;28;20533;-76
2022/04/08 04:27:54;;;;;;;0.40;0.40;;;3.80;99.90;;;;;;4999298;28;20735;-76
2022/04/08 04:30:20;;;;;;;0.30;0.30;;;3.90;99.90;;;;;;4994489;28;20448;-76
2022/04/08 04:32:45;;;;;;;0.40;0.40;;;3.80;99.90;;;;;;5010395;28;20436;-76
2022/04/08 04:35:14;;;;;;;0.40;0.40;;;3.90;99.90;;;;;;5013865;28;20224;-76
2022/04/08 04:37:40;;;;;;;0.40;0.40;;;3.90;99.90;;;;;;5009394;28;20184;-76
2022/04/08 04:40:08;;;;;;;0.50;0.50;;;3.90;99.90;;;;;;5005385;28;20919;-76
2022/04/08 04:42:34;;;;;;;0.30;0.30;;;3.90;99.90;;;;;;5006352;28;20181;-76
2022/04/08 04:44:59;;;;;;;0.50;0.50;;;3.90;99.90;;;;;;5007103;28;20489;-76
2022/04/08 04:47:25;;;;;;;0.40;0.40;;;3.90;99.90;;;;;;5006624;28;20183;-76
2022/04/08 04:49:51;;;;;;;0.40;0.40;;;3.80;99.90;;;;;;5005795;28;20184;-75
2022/04/08 04:52:16;;;;;;;0.40;0.40;;;3.80;99.90;;;;;;5005885;28;20439;-75
2022/04/08 04:54:42;;;;;;;0.40;0.40;;;3.80;99.90;;;;;;5004689;28;20220;-76
2022/04/08 04:57:07;;;;;;;0.50;0.50;;;3.80;99.90;;;;;;5006557;28;20192;-76
2022/04/08 04:59:33;;;;;;;0.47;0.47;;;3.80;99.90;;;;;;5005501;28;20690;-76
2022/04/08 05:01:59;;;;;;;0.50;0.50;;;3.80;99.90;;;;;;5001393;28;20207;-76
2022/04/08 05:04:25;;;;;;;0.40;0.40;;;3.90;99.90;;;;;;5006779;28;20447;-76
2022/04/08 05:06:50;;;;;;;0.40;0.40;;;3.90;99.90;;;;;;5004271;28;20216;-76
2022/04/08 05:09:16;;;;;;;0.40;0.40;;;4.00;99.90;;;;;;5000351;28;20224;-76
2022/04/08 05:11:42;;;;;;;0.40;0.40;;;4.00;99.90;;;;;;5006307;28;20200;-76
2022/04/08 05:14:07;;;;;;;0.37;0.37;;;3.90;99.90;;;;;;5006889;28;20199;-75
2022/04/08 05:16:33;;;;;;;0.40;0.40;;;3.90;99.90;;;;;;5007563;28;20196;-76
2022/04/08 05:18:58;;;;;;;0.40;0.40;;;3.90;99.90;;;;;;5007092;28;20236;-76
2022/04/08 05:21:24;;;;;;;0.30;0.30;;;3.90;99.90;;;;;;5004793;28;20200;-75
2022/04/08 05:23:49;;;;;;;0.40;0.40;;;3.90;99.90;;;;;;5007235;28;20231;-75
2022/04/08 05:26:15;;;;;;;0.40;0.40;;;3.80;99.90;;;;;;5001330;28;20715;-76
2022/04/08 05:28:41;;;;;;;0.50;0.50;;;3.80;99.90;;;;;;5006298;28;20192;-76
2022/04/08 05:31:06;;;;;;;0.50;0.50;;;3.90;99.90;;;;;;5004046;28;20226;-76
2022/04/08 05:33:32;;;;;;;0.50;0.50;;;3.90;99.90;;;;;;4987129;28;20191;-76
2022/04/08 05:35:57;;;;;;;0.40;0.40;;;3.90;99.90;;;;;;5008351;28;20229;-76
2022/04/08 05:38:23;;;;;;;0.40;0.40;;;4.00;99.90;;;;;;5003149;28;20209;-76
2022/04/08 05:40:49;;;;;;;0.50;0.50;;;4.10;99.90;;;;;;5008872;28;20236;-76
2022/04/08 05:43:16;;;;;;;0.40;0.40;;;4.10;99.90;;;;;;4992047;28;20188;-76
2022/04/08 05:45:42;;;;;;;0.50;0.50;;;4.20;99.90;;;;;;5009457;28;20483;-76
2022/04/08 05:48:08;;;;;;;0.30;0.30;;;4.10;99.90;;;;;;5009612;28;21283;-76
2022/04/08 05:50:34;;;;;;;0.40;0.40;;;4.10;99.90;;;;;;5003260;28;20279;-76
2022/04/08 05:53:00;;;;;;;0.40;0.40;;;4.20;99.90;;;;;;5011353;28;20463;-75
2022/04/08 05:55:25;;;;;;;0.40;0.40;;;4.20;99.90;;;;;;5008260;28;20526;-78
2022/04/08 05:57:53;;;;;;;0.40;0.40;;;4.30;99.90;;;;;;5010086;28;20732;-75
2022/04/08 06:00:20;;;;;;;0.40;0.40;;;4.40;99.90;;;;;;5007209;28;20279;-77
2022/04/08 06:02:47;;;;;;;0.40;0.40;;;4.40;99.90;;;;;;5007377;28;21141;-75
2022/04/08 06:05:20;;;;;;;0.40;0.40;;;4.50;99.90;;;;;;5009266;28;20537;-75
2022/04/08 06:07:54;;;;;;;0.30;0.30;;;4.60;99.90;;;;;;5011171;28;21038;-78
2022/04/08 06:10:26;;;;;;;0.40;0.40;;;4.70;99.90;;;;;;5001338;28;20531;-78
2022/04/08 06:12:53;;;;;;;0.40;0.40;;;4.80;99.90;;;;;;5010342;28;20494;-78
2022/04/08 06:15:19;;;;;;;0.40;0.40;;;4.90;99.90;;;;;;4999810;28;21180;-78
2022/04/08 06:17:46;;;;;;;0.40;0.40;;;4.90;99.90;;;;;;5007072;28;20467;-76
2022/04/08 06:20:15;;;;;;;0.30;0.30;;;5.00;99.90;;;;;;5004736;28;20479;-78
2022/04/08 06:22:41;;;;;;;0.30;0.30;;;5.10;99.90;;;;;;5011916;28;20427;-78
2022/04/08 06:25:09;;;;;;;0.40;0.40;;;5.30;99.90;;;;;;5005420;28;20938;-78
2022/04/08 06:27:35;;;;;;;0.40;0.40;;;5.30;99.90;;;;;;5006715;28;20947;-78
2022/04/08 06:30:03;;;;;;;0.40;0.40;;;5.50;99.90;;;;;;5008345;28;20473;-78
2022/04/08 06:32:28;;;;;;;0.30;0.30;;;5.50;99.90;;;;;;5005114;28;20443;-75
2022/04/08 06:34:54;;;;;;;0.30;0.30;;;5.70;99.90;;;;;;5010975;28;20973;-75
2022/04/08 06:37:19;;;;;;;0.30;0.30;;;5.80;99.90;;;;;;5007535;28;20187;-75
2022/04/08 06:39:47;;;;;;;0.30;0.30;;;5.60;99.90;;;;;;5005684;28;20222;-75
2022/04/08 06:42:13;;;;;;;0.40;0.40;;;5.60;99.90;;;;;;5010263;28;20184;-75
2022/04/08 06:44:39;;;;;;;0.30;0.30;;;5.60;99.90;;;;;;5011691;28;20451;-75
2022/04/08 06:47:04;;;;;;;0.37;0.37;;;5.70;99.90;;;;;;5009412;28;20660;-75
2022/04/08 06:49:30;;;;;;;0.30;0.30;;;5.70;99.90;;;;;;5010477;28;20219;-75
2022/04/08 06:51:58;;;;;;;0.30;0.30;;;5.80;99.90;;;;;;5028077;28;20183;-77
2022/04/08 06:54:25;;;;;;;0.30;0.30;;;5.80;99.90;;;;;;5007084;28;20304;-75
2022/04/08 06:56:51;;;;;;;0.30;0.30;;;6.00;99.90;;;;;;5012106;28;20451;-75
2022/04/08 06:59:17;;;;;;;0.37;0.37;;;6.00;99.90;;;;;;5012245;28;20479;-75
2022/04/08 07:01:42;;;;;;;0.37;0.37;;;6.00;99.90;;;;;;5009241;28;20525;-78
2022/04/08 07:04:08;;;;;;;0.30;0.30;;;6.10;99.90;;;;;;5009923;28;20443;-75
2022/04/08 07:06:33;;;;;;;0.40;0.40;;;6.20;99.90;;;;;;5012894;28;20275;-75
2022/04/08 07:08:59;;;;;;;0.20;0.20;;;6.30;99.90;;;;;;5021054;28;20198;-75
2022/04/08 07:11:24;;;;;;;0.30;0.30;;;6.40;99.90;;;;;;5011863;28;20199;-75
2022/04/08 07:13:50;;;;;;;0.30;0.30;;;6.40;99.90;;;;;;4987899;28;20191;-75
2022/04/08 07:16:15;;;;;;;0.40;0.40;;;6.40;99.90;;;;;;5009011;28;20656;-75
2022/04/08 07:18:41;;;;;;;0.33;0.33;;;6.60;99.90;;;;;;5011433;28;20216;-75
2022/04/08 07:21:07;;;;;;;0.30;0.30;;;6.50;99.90;;;;;;5006625;28;20219;-75
2022/04/08 07:23:32;;;;;;;0.40;0.40;;;6.70;99.90;;;;;;5020450;28;20192;-75
2022/04/08 07:25:58;;;;;;;0.30;0.30;;;6.80;99.90;;;;;;5006757;28;20249;-75
2022/04/08 07:28:24;;;;;;;0.30;0.30;;;6.90;99.90;;;;;;5021398;28;20569;-75
2022/04/08 07:30:51;;;;;;;0.30;0.30;;;6.80;99.90;;;;;;4999563;28;20197;-75
2022/04/08 07:33:16;;;;;;;0.30;0.30;;;6.90;99.90;;;;;;5010674;28;20271;-75
2022/04/08 07:35:42;;;;;;;0.30;0.30;;;7.00;99.90;;;;;;5006892;28;20536;-75
2022/04/08 07:38:07;;;;;;;0.30;0.30;;;6.90;99.90;;;;;;5028886;28;20191;-75
2022/04/08 07:40:33;;;;;;;0.30;0.30;;;6.90;99.90;;;;;;5010011;28;20639;-75
2022/04/08 07:42:58;;;;;;;0.30;0.30;;;7.10;99.90;;;;;;5009400;28;20320;-75
2022/04/08 07:45:27;;;;;;;0.30;0.30;;;7.30;99.90;;;;;;5009199;28;20290;-75
2022/04/08 07:47:58;;;;;;;0.30;0.30;;;7.60;99.90;;;;;;5015547;28;20185;-75
2022/04/08 07:50:25;;;;;;;0.30;0.30;;;7.40;99.90;;;;;;4994898;28;20517;-75
2022/04/08 07:52:51;;;;;;;0.30;0.30;;;7.30;99.90;;;;;;5015052;28;20582;-75
2022/04/08 07:55:20;;;;;;;0.30;0.30;;;7.50;99.90;;;;;;5010265;28;20924;-75
2022/04/08 07:57:47;;;;;;;0.30;0.30;;;7.10;99.90;;;;;;5026955;28;20176;-75
2022/04/08 08:00:14;;;;;;;0.30;0.30;;;7.40;99.90;;;;;;5007519;28;20483;-76
2022/04/08 08:02:41;;;;;;;0.30;0.30;;;7.40;99.90;;;;;;5012299;28;20441;-75
2022/04/08 08:05:07;;;;;;;0.30;0.30;;;7.30;99.90;;;;;;5000877;28;20455;-75
2022/04/08 08:07:54;;;;;;;0.30;0.30;;;7.10;99.90;;;;;;5006926;28;20443;-75
2022/04/08 08:10:31;;;;;;;0.30;0.30;;;7.00;99.90;;;;;;5010084;28;20442;-75
2022/04/08 08:13:00;;;;;;;0.20;0.20;;;6.90;99.90;;;;;;5000557;28;20425;-75
2022/04/08 08:15:26;;;;;;;0.20;0.20;;;7.30;99.90;;;;;;5013367;28;20457;-75
2022/04/08 08:17:52;;;;;;;0.30;0.30;;;7.40;99.90;;;;;;5003260;28;20464;-75
2022/04/08 08:20:20;;;;;;;0.30;0.30;;;7.30;99.90;;;;;;5015671;28;20532;-75
2022/04/08 08:22:46;;;;;;;0.30;0.30;;;7.30;99.90;;;;;;5010679;28;20431;-75
2022/04/08 08:25:13;;;;;;;0.30;0.30;;;7.70;99.90;;;;;;5011963;28;20458;-76
2022/04/08 08:27:46;;;;;;;0.20;0.20;;;8.00;99.90;;;;;;5009671;28;20454;-75
2022/04/08 08:30:15;;;;;;;0.30;0.30;;;7.80;99.90;;;;;;5006167;28;20990;-75
2022/04/08 08:32:43;;;;;;;0.30;0.30;;;7.20;99.90;;;;;;5009453;28;20439;-75
2022/04/08 08:35:10;;;;;;;0.20;0.20;;;7.30;99.90;;;;;;5006903;28;20454;-75
2022/04/08 08:37:36;;;;;;;0.30;0.30;;;7.60;99.90;;;;;;5004319;28;20454;-75
2022/04/08 08:40:03;;;;;;;0.30;0.30;;;8.00;99.90;;;;;;4993547;28;20495;-75
2022/04/08 08:42:29;;;;;;;0.30;0.30;;;7.80;99.90;;;;;;5014519;28;20434;-75
2022/04/08 08:44:55;;;;;;;0.30;0.30;;;7.90;99.90;;;;;;5011075;28;20466;-74
2022/04/08 08:47:22;;;;;;;0.23;0.23;;;7.90;99.90;;;;;;5007479;28;20443;-75
2022/04/08 08:49:49;;;;;;;0.30;0.30;;;8.40;99.90;;;;;;5008746;28;20536;-75
2022/04/08 08:52:18;;;;;;;0.30;0.30;;;7.90;99.90;;;;;;5003952;28;21042;-75
2022/04/08 08:54:45;;;;;;;0.30;0.30;;;8.10;99.90;;;;;;5006480;28;21076;-75
2022/04/08 08:57:14;;;;;;;0.30;0.30;;;8.40;99.90;;;;;;5007570;28;20454;-75
2022/04/08 08:59:39;;;;;;;0.30;0.30;;;8.30;99.90;;;;;;5011953;28;20522;-74
2022/04/08 09:02:05;;;;;;;0.20;0.20;;;8.60;99.90;;;;;;5007294;28;20931;-75
2022/04/08 09:04:30;;;;;;;0.30;0.30;;;8.80;99.90;;;;;;4999478;28;20223;-75
2022/04/08 09:06:57;;;;;;;0.20;0.20;;;9.20;99.90;;;;;;4982024;28;20274;-75
2022/04/08 09:09:32;;;;;;;0.20;0.20;;;9.00;99.90;;;;;;4985308;28;20196;-75
2022/04/08 09:12:14;;;;;;;0.20;0.20;;;8.60;99.90;;;;;;5008847;28;20569;-75
2022/04/08 09:14:51;;;;;;;0.20;0.20;;;8.90;99.90;;;;;;5014457;28;20459;-75
2022/04/08 09:17:18;;;;;;;0.20;0.20;;;8.80;99.90;;;;;;5004933;28;20450;-75
2022/04/08 09:19:54;;;;;;;0.20;0.20;;;9.10;99.90;;;;;;5010508;28;20536;-75
2022/04/08 09:22:21;;;;;;;0.20;0.20;;;9.50;99.90;;;;;;5021417;28;20536;-75
2022/04/08 09:24:47;;;;;;;0.20;0.20;;;9.30;99.90;;;;;;5006688;28;20881;-75
2022/04/08 09:27:13;;;;;;;0.20;0.20;;;8.60;99.90;;;;;;4989306;28;20435;-75
2022/04/08 09:29:45;;;;;;;0.23;0.23;;;8.50;99.90;;;;;;5007933;28;20517;-75
2022/04/08 09:32:12;;;;;;;0.20;0.20;;;8.80;99.90;;;;;;5005297;28;20619;-74
2022/04/08 09:34:39;;;;;;;0.30;0.30;;;8.30;99.90;;;;;;5006651;28;20940;-74
2022/04/08 09:37:13;;;;;;;0.20;0.20;;;8.50;99.90;;;;;;5009533;28;20504;-75
2022/04/08 09:39:58;;;;;;;0.20;0.20;;;8.70;99.90;;;;;;5004286;28;20575;-75
2022/04/08 09:42:29;;;;;;;0.20;0.20;;;9.30;99.90;;;;;;5012949;28;20434;-75
2022/04/08 09:44:55;;;;;;;0.20;0.20;;;10.00;99.90;;;;;;5009323;28;20919;-75
2022/04/08 09:47:20;;;;;;;0.20;0.20;;;9.40;99.90;;;;;;5012322;28;20563;-75
2022/04/08 09:49:46;;;;;;;0.20;0.20;;;9.20;99.90;;;;;;5007887;28;20199;-75
2022/04/08 09:52:15;;;;;;;0.30;0.30;;;8.70;99.90;;;;;;5007088;28;20192;-74
2022/04/08 09:54:43;;;;;;;0.30;0.30;;;9.30;99.90;;;;;;4986350;28;20229;-75
2022/04/08 09:57:17;;;;;;;0.20;0.20;;;9.60;99.90;;;;;;5016917;28;20443;-75
2022/04/08 09:59:45;;;;;;;0.20;0.20;;;9.10;99.90;;;;;;5009872;28;20490;-75
2022/04/08 10:02:13;;;;;;;0.20;0.20;;;9.20;99.90;;;;;;5012306;28;20486;-75
2022/04/08 10:04:39;;;;;;;0.20;0.20;;;8.90;99.90;;;;;;5011901;28;20955;-75
2022/04/08 10:07:05;;;;;;;0.20;0.20;;;8.50;99.90;;;;;;5009036;28;20474;-75
2022/04/08 10:09:34;;;;;;;0.30;0.30;;;8.30;99.90;;;;;;5013898;28;20806;-75
2022/04/08 10:12:06;;;;;;;0.20;0.20;;;8.20;99.90;;;;;;5022471;28;20430;-75
2022/04/08 10:14:49;;;;;;;0.20;0.20;;;8.70;99.90;;;;;;5008956;28;20450;-74
2022/04/08 10:17:15;;;;;;;0.20;0.20;;;9.70;99.90;;;;;;5008859;28;20444;-76
2022/04/08 10:19:40;;;;;;;0.20;0.20;;;9.80;99.90;;;;;;5006206;28;20847;-75
2022/04/08 10:22:16;;;;;;;0.20;0.20;;;9.40;99.90;;;;;;5004335;28;20435;-75
2022/04/08 10:24:52;;;;;;;0.20;0.20;;;9.00;99.90;;;;;;5009843;28;20272;-75
2022/04/08 10:27:28;;;;;;;0.20;0.20;;;9.10;99.90;;;;;;4991800;28;20541;-75
2022/04/08 10:29:54;;;;;;;0.20;0.20;;;9.80;99.90;;;;;;5005201;28;20497;-75
2022/04/08 10:32:21;;;;;;;0.20;0.20;;;9.60;99.90;;;;;;5012190;28;20498;-75
2022/04/08 10:34:47;;;;;;;0.20;0.20;;;10.00;99.90;;;;;;4988520;28;20517;-75
2022/04/08 10:37:16;;;;;;;0.20;0.20;;;10.70;99.90;;;;;;5009403;28;20931;-75
2022/04/08 10:39:53;;;;;;;0.10;0.10;;;10.90;99.90;;;;;;5010004;28;20482;-75
2022/04/08 10:42:25;;;;;;;0.17;0.17;;;11.50;99.90;;;;;;5010137;28;20462;-75
2022/04/08 10:44:50;;;;;;;0.10;0.10;;;11.60;99.90;;;;;;5005359;28;20463;-75
2022/04/08 10:47:19;;;;;;;0.13;0.13;;;11.30;99.90;;;;;;5001596;28;20919;-75
2022/04/08 10:49:51;;;;;;;0.10;0.10;;;10.60;99.90;;;;;;5011190;28;20266;-75
2022/04/08 10:52:18;;;;;;;0.10;0.10;;;11.30;99.90;;;;;;4993418;28;20435;-75
2022/04/08 10:54:44;;;;;;;0.10;0.10;;;11.20;99.90;;;;;;5004180;28;20570;-74
2022/04/08 10:57:10;;;;;;;0.10;0.10;;;11.70;99.90;;;;;;5000331;28;20508;-74
2022/04/08 10:59:36;;;;;;;0.10;0.10;;;12.50;99.90;;;;;;5008485;28;20487;-74
2022/04/08 11:02:05;;;;;;;0.10;0.10;;;12.90;99.90;;;;;;5010306;28;20847;-77
2022/04/08 11:04:31;;;;;;;0.10;0.10;;;12.30;99.90;;;;;;5015973;28;20180;-74
2022/04/08 11:07:03;;;;;;;0.10;0.10;;;11.40;99.90;;;;;;5010318;28;20798;-77
2022/04/08 11:09:30;;;;;;;0.10;0.10;;;11.70;99.90;;;;;;5007589;28;21036;-76
2022/04/08 11:11:56;;;;;;;0.10;0.10;;;11.50;99.90;;;;;;5013734;28;20819;-74
2022/04/08 11:14:21;;;;;;;0.10;0.10;;;10.70;99.90;;;;;;4993081;28;20965;-77
2022/04/08 11:16:50;;;;;;;0.10;0.10;;;10.10;99.90;;;;;;5010320;28;20447;-77
2022/04/08 11:19:16;;;;;;;0.10;0.10;;;9.70;99.90;;;;;;5009189;28;20675;-76
2022/04/08 11:21:42;;;;;;;0.10;0.10;;;10.60;99.90;;;;;;4993998;28;20439;-76
2022/04/08 11:24:16;;;;;;;0.10;0.10;;;11.80;99.90;;;;;;5009540;28;20540;-74
2022/04/08 11:26:44;;;;;;;0.10;0.10;;;12.10;99.90;;;;;;5006745;28;20999;-76
2022/04/08 11:29:15;;;;;;;0.10;0.10;;;11.90;99.90;;;;;;5006243;28;20942;-76
2022/04/08 11:31:42;;;;;;;0.10;0.10;;;11.60;99.90;;;;;;5012494;28;20447;-76
2022/04/08 11:34:08;;;;;;;0.10;0.10;;;10.70;99.90;;;;;;5014341;28;20467;-76
2022/04/08 11:36:35;;;;;;;0.10;0.10;;;10.60;99.90;;;;;;5011486;28;21025;-76
2022/04/08 11:39:02;;;;;;;0.10;0.10;;;11.60;99.90;;;;;;5010313;28;21001;-74
2022/04/08 11:41:28;;;;;;;0.10;0.10;;;11.20;99.90;;;;;;5008429;28;20518;-75
2022/04/08 11:43:54;;;;;;;0.10;0.10;;;12.00;99.90;;;;;;5005410;28;21026;-76
2022/04/08 11:46:20;;;;;;;0.10;0.10;;;11.60;99.90;;;;;;5012098;28;20190;-75
2022/04/08 11:48:45;;;;;;;0.00;0.00;;;11.70;99.90;;;;;;5031011;28;20179;-75
2022/04/08 11:51:12;;;;;;;0.00;0.00;;;12.40;99.90;;;;;;5000679;28;20513;-75
2022/04/08 11:53:45;;;;;;;0.00;0.00;;;13.60;99.90;;;;;;5006025;28;20263;-75
2022/04/08 11:56:18;;;;;;;0.00;0.00;;;12.80;99.90;;;;;;5002003;28;21001;-75
2022/04/08 11:58:52;;;;;;;0.00;0.00;;;13.30;99.90;;;;;;5006571;28;20485;-76
2022/04/08 12:01:17;;;;;;;0.00;0.00;;;13.20;99.90;;;;;;5008129;28;20620;-75
2022/04/08 12:03:43;;;;;;;0.03;0.03;;;12.10;99.90;;;;;;5009609;28;20538;-75
2022/04/08 12:06:08;;;;;;;0.00;0.00;;;12.70;99.90;;;;;;5000173;28;20231;-75
2022/04/08 12:08:34;;;;;;;0.00;0.00;;;12.60;99.90;;;;;;5003891;28;20203;-75
2022/04/08 12:11:00;;;;;;;0.00;0.00;;;12.50;99.90;;;;;;5006511;28;20200;-76
2022/04/08 12:13:26;;;;;;;0.00;0.00;;;13.50;99.90;;;;;;4991163;28;20188;-76
2022/04/08 12:15:57;;;;;;;0.07;0.07;;;11.30;99.90;;;;;;5006750;28;20663;-76
2022/04/08 12:18:25;;;;;;;0.00;0.00;;;11.50;99.90;;;;;;5010827;28;20447;-76
2022/04/08 12:20:53;;;;;;;0.10;0.10;;;11.20;99.90;;;;;;5008399;28;20459;-76
2022/04/08 12:23:21;;;;;;;0.10;0.10;;;10.90;99.90;;;;;;5018388;28;20445;-76
2022/04/08 12:25:50;;;;;;;0.10;0.10;;;10.00;99.90;;;;;;5011828;28;21060;-74
2022/04/08 12:28:16;;;;;;;0.00;0.00;;;9.90;99.90;;;;;;5009200;28;20448;-75
2022/04/08 12:30:41;;;;;;;0.10;0.10;;;9.60;99.90;;;;;;5002981;28;20451;-76
2022/04/08 12:33:07;;;;;;;0.10;0.10;;;9.00;99.90;;;;;;5006823;28;20184;-75
2022/04/08 12:35:33;;;;;;;0.13;0.13;;;8.60;99.90;;;;;;5006301;28;20189;-75
2022/04/08 12:37:59;;;;;;;0.10;0.10;;;8.20;99.90;;;;;;5007953;28;20196;-76
2022/04/08 12:40:25;;;;;;;0.20;0.20;;;7.90;99.90;;;;;;5004673;28;20251;-75
2022/04/08 12:42:51;;;;;;;0.20;0.20;;;7.10;99.90;;;;;;5006345;28;20935;-75
2022/04/08 12:45:16;;;;;;;0.10;0.10;;;6.70;99.90;;;;;;5001568;28;20251;-75
2022/04/08 12:47:42;;;;;;;0.20;0.20;;;6.40;99.90;;;;;;4990916;28;20199;-75
2022/04/08 12:50:10;;;;;;;0.20;0.20;;;6.20;99.90;;;;;;5003393;28;20573;-74
2022/04/08 12:52:36;;;;;;;0.20;0.20;;;6.30;99.90;;;;;;5006403;28;20196;-75